createdAt,value
2023-05-06T00:00:07.227Z,100821.75
2023-05-06T00:02:36.125Z,100817.91
2023-05-06T00:05:05.481Z,100823.09
2023-05-06T00:07:34.335Z,100820.56
2023-05-06T00:10:04.278Z,100814.50
2023-05-06T00:12:34.369Z,100808.47
2023-05-06T00:15:03.079Z,100808.69
2023-05-06T00:17:31.775Z,100805.66
2023-05-06T00:20:00.286Z,100802.88
2023-05-06T00:22:29.472Z,100805.38
2023-05-06T00:24:58.565Z,100802.16
2023-05-06T00:27:27.584Z,100807.41
2023-05-06T00:29:58.147Z,100804.16
2023-05-06T00:32:27.840Z,100802.91
2023-05-06T00:34:57.096Z,100799.13
2023-05-06T00:37:26.191Z,100803.78
2023-05-06T00:39:55.022Z,100812.56
2023-05-06T00:42:23.703Z,100806.03
2023-05-06T00:44:52.522Z,100802.22
2023-05-06T00:47:23.221Z,100803.91
2023-05-06T00:49:52.197Z,100804.50
2023-05-06T00:52:20.932Z,100797.47
2023-05-06T00:54:50.164Z,100805.16
2023-05-06T00:57:18.721Z,100807.13
2023-05-06T00:59:47.411Z,100799.44
2023-05-06T01:02:16.769Z,100799.22
2023-05-06T01:04:55.554Z,100803.66
2023-05-06T01:11:55.045Z,100805.88
2023-05-06T01:14:29.688Z,100808.03
2023-05-06T01:17:00.886Z,100794.94
2023-05-06T01:19:35.879Z,100805.31
2023-05-06T01:22:06.734Z,100811.00
2023-05-06T01:24:37.630Z,100805.31
2023-05-06T01:27:06.382Z,100814.59
2023-05-06T01:29:36.746Z,100805.88
2023-05-06T01:32:12.077Z,100803.78
2023-05-06T01:34:44.567Z,100802.75
2023-05-06T01:37:15.935Z,100799.75
2023-05-06T01:39:48.540Z,100793.53
2023-05-06T01:42:17.831Z,100791.09
2023-05-06T01:44:46.822Z,100795.72
2023-05-06T01:47:16.473Z,100782.13
2023-05-06T01:49:44.815Z,100790.16
2023-05-06T01:52:13.588Z,100785.81
2023-05-06T01:54:42.071Z,100787.22
2023-05-06T01:57:12.103Z,100787.22
2023-05-06T01:59:40.461Z,100790.78
2023-05-06T02:02:09.297Z,100784.50
2023-05-06T02:04:54.299Z,100779.94
2023-05-06T02:07:22.864Z,100793.63
2023-05-06T02:10:08.684Z,100785.75
2023-05-06T02:12:38.786Z,100797.25
2023-05-06T02:15:07.966Z,100791.25
2023-05-06T02:17:37.398Z,100797.25
2023-05-06T02:20:06.498Z,100788.28
2023-05-06T02:22:35.134Z,100791.56
2023-05-06T02:25:03.901Z,100797.31
2023-05-06T02:27:32.420Z,100804.94
2023-05-06T02:30:02.241Z,100794.53
2023-05-06T02:32:31.990Z,100787.47
2023-05-06T02:35:00.978Z,100786.13
2023-05-06T02:37:30.194Z,100788.88
2023-05-06T02:39:58.842Z,100782.59
2023-05-06T02:42:27.490Z,100789.72
2023-05-06T02:44:55.952Z,100796.00
2023-05-06T02:47:25.949Z,100795.47
2023-05-06T02:49:54.437Z,100789.16
2023-05-06T02:52:23.027Z,100799.50
2023-05-06T02:54:51.430Z,100797.31
2023-05-06T02:57:19.960Z,100800.31
2023-05-06T02:59:48.345Z,100795.19
2023-05-06T03:02:17.093Z,100796.31
2023-05-06T03:04:47.205Z,100796.63
2023-05-06T03:07:15.675Z,100796.06
2023-05-06T03:09:44.284Z,100803.72
2023-05-06T03:12:12.965Z,100803.47
2023-05-06T03:14:41.467Z,100804.56
2023-05-06T03:17:09.835Z,100804.31
2023-05-06T03:19:38.347Z,100795.06
2023-05-06T03:22:08.139Z,100790.72
2023-05-06T03:24:36.604Z,100794.34
2023-05-06T03:27:05.190Z,100787.84
2023-05-06T03:29:33.783Z,100783.50
2023-05-06T03:32:03.762Z,100782.44
2023-05-06T03:34:32.433Z,100786.22
2023-05-06T03:37:00.846Z,100791.97
2023-05-06T03:39:30.709Z,100784.63
2023-05-06T03:41:59.292Z,100786.22
2023-05-06T03:44:27.725Z,100787.88
2023-05-06T03:46:56.073Z,100779.44
2023-05-06T03:49:24.644Z,100786.81
2023-05-06T03:51:53.737Z,100788.16
2023-05-06T03:54:22.413Z,100781.88
2023-05-06T03:56:52.392Z,100791.16
2023-05-06T03:59:20.757Z,100791.16
2023-05-06T04:01:49.380Z,100784.63
2023-05-06T04:04:18.534Z,100787.88
2023-05-06T04:06:47.281Z,100792.25
2023-05-06T04:09:16.121Z,100791.16
2023-05-06T04:11:44.649Z,100789.50
2023-05-06T04:14:14.432Z,100797.63
2023-05-06T04:16:43.033Z,100804.38
2023-05-06T04:19:12.100Z,100794.91
2023-05-06T04:21:40.651Z,100798.13
2023-05-06T04:24:09.329Z,100797.88
2023-05-06T04:26:37.746Z,100802.56
2023-05-06T04:29:07.122Z,100810.47
2023-05-06T04:31:37.803Z,100814.56
2023-05-06T04:34:06.677Z,100819.44
2023-05-06T04:36:35.154Z,100821.56
2023-05-06T04:39:08.825Z,100826.72
2023-05-06T04:41:38.125Z,100830.19
2023-05-06T04:44:06.917Z,100834.28
2023-05-06T04:46:36.175Z,100843.72
2023-05-06T04:49:06.313Z,100838.03
2023-05-06T04:51:34.886Z,100841.03
2023-05-06T04:54:03.701Z,100836.66
2023-05-06T04:56:32.250Z,100839.41
2023-05-06T04:59:00.716Z,100841.56
2023-05-06T05:01:29.659Z,100844.81
2023-05-06T05:03:58.788Z,100842.34
2023-05-06T05:06:29.207Z,100846.41
2023-05-06T05:08:59.357Z,100837.03
2023-05-06T05:11:28.151Z,100846.00
2023-05-06T05:13:57.453Z,100841.31
2023-05-06T05:16:27.002Z,100844.28
2023-05-06T05:18:55.629Z,100847.19
2023-05-06T05:21:24.227Z,100851.50
2023-05-06T05:23:54.510Z,100856.06
2023-05-06T05:26:23.051Z,100852.50
2023-05-06T05:28:51.720Z,100855.63
2023-05-06T05:31:20.164Z,100854.97
2023-05-06T05:33:49.038Z,100854.88
2023-05-06T05:36:17.463Z,100855.31
2023-05-06T05:38:47.801Z,100859.78
2023-05-06T05:41:17.786Z,100861.84
2023-05-06T05:43:46.275Z,100870.16
2023-05-06T05:46:15.607Z,100866.19
2023-05-06T05:48:44.124Z,100873.13
2023-05-06T05:51:12.588Z,100874.78
2023-05-06T05:53:41.245Z,100875.69
2023-05-06T05:56:09.649Z,100874.47
2023-05-06T05:58:39.725Z,100877.59
2023-05-06T06:01:08.019Z,100879.38
2023-05-06T06:03:36.564Z,100877.50
2023-05-06T06:06:05.411Z,100875.38
2023-05-06T06:08:34.445Z,100874.59
2023-05-06T06:11:04.519Z,100868.97
2023-05-06T06:13:33.076Z,100873.69
2023-05-06T06:16:03.027Z,100873.91
2023-05-06T06:18:31.821Z,100876.38
2023-05-06T06:21:01.038Z,100875.06
2023-05-06T06:23:29.700Z,100863.06
2023-05-06T06:25:58.764Z,100881.03
2023-05-06T06:28:27.359Z,100871.69
2023-05-06T06:30:55.848Z,100880.94
2023-05-06T06:33:25.728Z,100870.47
2023-05-06T06:35:54.821Z,100872.06
2023-05-06T06:38:23.436Z,100878.50
2023-05-06T06:40:52.109Z,100880.13
2023-05-06T06:43:20.850Z,100880.09
2023-05-06T06:46:03.293Z,100884.78
2023-05-06T06:48:33.230Z,100873.31
2023-05-06T06:51:01.750Z,100885.91
2023-05-06T06:53:30.232Z,100882.91
2023-05-06T06:55:58.774Z,100880.06
2023-05-06T06:58:27.104Z,100885.22
2023-05-06T07:00:55.701Z,100891.44
2023-05-06T07:03:24.062Z,100888.56
2023-05-06T07:05:53.914Z,100889.81
2023-05-06T07:08:22.380Z,100879.94
2023-05-06T07:10:50.803Z,100883.94
2023-05-06T07:13:20.713Z,100883.53
2023-05-06T07:15:49.318Z,100878.03
2023-05-06T07:18:17.769Z,100881.63
2023-05-06T07:20:46.310Z,100885.72
2023-05-06T07:23:16.018Z,100876.50
2023-05-06T07:25:44.729Z,100882.31
2023-05-06T07:28:13.090Z,100887.34
2023-05-06T07:30:41.415Z,100885.75
2023-05-06T07:33:09.934Z,100869.13
2023-05-06T07:35:38.318Z,100873.16
2023-05-06T07:38:06.892Z,100877.00
2023-05-06T07:40:36.680Z,100872.78
2023-05-06T07:43:06.493Z,100881.38
2023-05-06T07:45:35.233Z,100882.19
2023-05-06T07:48:03.756Z,100879.09
2023-05-06T07:50:32.694Z,100880.53
2023-05-06T07:53:01.670Z,100875.97
2023-05-06T07:55:30.536Z,100868.06
2023-05-06T07:58:00.333Z,100870.91
2023-05-06T08:00:28.920Z,100864.75
2023-05-06T08:02:57.617Z,100870.69
2023-05-06T08:05:26.078Z,100878.16
2023-05-06T08:07:55.696Z,100878.34
2023-05-06T08:10:24.366Z,100883.19
2023-05-06T08:12:52.828Z,100879.47
2023-05-06T08:15:22.688Z,100878.22
2023-05-06T08:17:51.149Z,100883.16
2023-05-06T08:20:44.934Z,100888.44
2023-05-06T08:23:13.395Z,100884.50
2023-05-06T08:25:41.930Z,100882.13
2023-05-06T08:28:10.336Z,100884.78
2023-05-06T08:30:40.627Z,100881.94
2023-05-06T08:33:09.323Z,100880.19
2023-05-06T08:35:37.937Z,100889.56
2023-05-06T08:38:06.306Z,100883.19
2023-05-06T08:40:34.940Z,100889.28
2023-05-06T08:43:03.954Z,100887.75
2023-05-06T08:45:33.634Z,100889.66
2023-05-06T08:48:03.600Z,100882.97
2023-05-06T08:50:32.219Z,100884.38
2023-05-06T08:53:01.922Z,100886.88
2023-05-06T08:55:32.146Z,100883.69
2023-05-06T08:58:01.312Z,100880.50
2023-05-06T09:00:29.854Z,100884.34
2023-05-06T09:02:58.426Z,100880.75
2023-05-06T09:05:28.644Z,100883.94
2023-05-06T09:07:56.986Z,100889.06
2023-05-06T09:10:30.237Z,100892.75
2023-05-06T09:12:59.362Z,100887.09
2023-05-06T09:15:28.195Z,100882.94
2023-05-06T09:17:57.223Z,100887.31
2023-05-06T09:20:26.117Z,100874.28
2023-05-06T09:22:56.476Z,100882.53
2023-05-06T09:25:25.008Z,100875.16
2023-05-06T09:28:03.951Z,100867.84
2023-05-06T09:30:34.424Z,100871.53
2023-05-06T09:33:04.686Z,100862.09
2023-05-06T09:35:36.947Z,100858.13
2023-05-06T09:38:07.574Z,100858.22
2023-05-06T09:40:36.849Z,100850.59
2023-05-06T09:43:05.724Z,100864.63
2023-05-06T09:45:34.337Z,100856.41
2023-05-06T09:48:03.478Z,100856.09
2023-05-06T09:50:33.420Z,100847.03
2023-05-06T09:53:03.701Z,100855.69
2023-05-06T09:55:34.372Z,100847.00
2023-05-06T09:58:04.713Z,100840.50
2023-05-06T10:00:33.820Z,100844.75
2023-05-06T10:03:03.179Z,100843.78
2023-05-06T10:05:33.532Z,100844.81
2023-05-06T10:08:04.430Z,100838.09
2023-05-06T10:10:36.139Z,100839.41
2023-05-06T10:13:05.335Z,100829.06
2023-05-06T10:15:34.254Z,100837.72
2023-05-06T10:18:04.493Z,100830.53
2023-05-06T10:20:36.747Z,100824.16
2023-05-06T10:23:10.989Z,100829.91
2023-05-06T10:25:42.722Z,100827.41
2023-05-06T10:28:24.646Z,100828.91
2023-05-06T10:31:00.528Z,100826.00
2023-05-06T10:33:29.552Z,100820.25
2023-05-06T10:36:04.415Z,100821.13
2023-05-06T10:38:35.908Z,100815.66
2023-05-06T10:41:06.024Z,100809.72
2023-05-06T10:43:35.950Z,100807.78
2023-05-06T10:46:06.354Z,100817.31
2023-05-06T10:48:35.933Z,100806.25
2023-05-06T10:51:24.156Z,100811.63
2023-05-06T10:53:59.880Z,100799.25
2023-05-06T10:56:30.409Z,100806.53
2023-05-06T10:59:05.207Z,100807.38
2023-05-06T11:01:33.877Z,100801.44
2023-05-06T11:04:06.062Z,100804.91
2023-05-06T11:06:37.589Z,100804.31
2023-05-06T11:09:10.281Z,100799.75
2023-05-06T11:11:50.954Z,100798.47
2023-05-06T11:14:32.825Z,100800.53
2023-05-06T11:17:02.831Z,100798.78
2023-05-06T11:19:33.121Z,100799.81
2023-05-06T11:22:04.507Z,100800.19
2023-05-06T11:24:39.279Z,100787.63
2023-05-06T11:27:13.159Z,100802.91
2023-05-06T11:29:44.263Z,100799.28
2023-05-06T11:32:38.413Z,100792.88
2023-05-06T11:35:08.283Z,100786.03
2023-05-06T11:37:36.856Z,100786.03
2023-05-06T11:40:15.209Z,100785.72
2023-05-06T11:42:45.729Z,100778.97
2023-05-06T11:45:14.628Z,100788.50
2023-05-06T11:47:49.645Z,100786.81
2023-05-06T11:50:25.795Z,100786.09
2023-05-06T11:52:55.629Z,100788.28
2023-05-06T11:55:25.601Z,100792.06
2023-05-06T11:57:56.472Z,100793.59
2023-05-06T12:00:26.147Z,100790.56
2023-05-06T12:02:58.297Z,100785.25
2023-05-06T12:05:28.827Z,100781.31
2023-05-06T12:07:57.510Z,100783.63
2023-05-06T12:10:26.619Z,100777.75
2023-05-06T12:12:56.820Z,100772.56
2023-05-06T12:15:27.634Z,100776.31
2023-05-06T12:17:56.438Z,100767.34
2023-05-06T12:20:24.784Z,100774.25
2023-05-06T12:23:06.773Z,100773.19
2023-05-06T12:25:36.852Z,100769.94
2023-05-06T12:28:18.803Z,100764.28
2023-05-06T12:30:48.538Z,100760.63
2023-05-06T12:33:17.799Z,100764.06
2023-05-06T12:35:49.251Z,100758.84
2023-05-06T12:38:19.058Z,100754.25
2023-05-06T12:40:54.121Z,100753.44
2023-05-06T12:43:32.750Z,100747.34
2023-05-06T12:46:07.657Z,100752.84
2023-05-06T12:48:36.470Z,100757.78
2023-05-06T12:51:18.857Z,100760.41
2023-05-06T12:53:47.597Z,100756.69
2023-05-06T12:56:15.996Z,100749.34
2023-05-06T12:58:56.359Z,100748.19
2023-05-06T13:01:25.901Z,100748.41
2023-05-06T13:03:56.506Z,100739.00
2023-05-06T13:06:26.820Z,100749.19
2023-05-06T13:08:56.726Z,100746.59
2023-05-06T13:11:26.197Z,100749.53
2023-05-06T13:13:56.584Z,100745.19
2023-05-06T13:16:27.508Z,100737.94
2023-05-06T13:18:59.466Z,100737.47
2023-05-06T13:21:28.574Z,100742.44
2023-05-06T13:23:57.463Z,100741.97
2023-05-06T13:26:27.895Z,100741.53
2023-05-06T13:28:59.170Z,100737.69
2023-05-06T13:31:29.504Z,100733.63
2023-05-06T13:33:58.432Z,100733.63
2023-05-06T13:36:28.520Z,100732.91
2023-05-06T13:38:57.380Z,100722.75
2023-05-06T13:41:26.276Z,100724.88
2023-05-06T13:43:55.222Z,100724.44
2023-05-06T13:46:28.302Z,100724.09
2023-05-06T13:49:02.731Z,100724.09
2023-05-06T13:51:33.871Z,100722.09
2023-05-06T13:54:03.152Z,100721.69
2023-05-06T13:56:32.728Z,100722.78
2023-05-06T13:59:04.703Z,100721.66
2023-05-06T14:01:35.200Z,100712.31
2023-05-06T14:04:04.502Z,100711.06
2023-05-06T14:06:33.599Z,100709.44
2023-05-06T14:09:02.093Z,100704.03
2023-05-06T14:11:30.760Z,100701.00
2023-05-06T14:14:06.939Z,100707.56
2023-05-06T14:16:37.795Z,100710.88
2023-05-06T14:19:08.936Z,100704.19
2023-05-06T14:21:41.459Z,100694.53
2023-05-06T14:24:19.889Z,100696.31
2023-05-06T14:26:48.361Z,100687.03
2023-05-06T14:29:16.786Z,100696.13
2023-05-06T14:31:46.863Z,100686.72
2023-05-06T14:34:15.240Z,100692.63
2023-05-06T14:36:45.209Z,100692.09
2023-05-06T14:39:14.141Z,100692.44
2023-05-06T14:41:43.191Z,100690.97
2023-05-06T14:44:12.702Z,100688.09
2023-05-06T14:46:45.150Z,100686.00
2023-05-06T14:49:16.505Z,100684.69
2023-05-06T14:51:45.849Z,100679.25
2023-05-06T14:54:15.083Z,100680.22
2023-05-06T14:56:45.492Z,100684.31
2023-05-06T14:59:14.906Z,100678.16
2023-05-06T15:01:50.007Z,100678.16
2023-05-06T15:04:20.093Z,100681.31
2023-05-06T15:06:48.754Z,100678.09
2023-05-06T15:09:17.347Z,100680.66
2023-05-06T15:11:47.888Z,100682.91
2023-05-06T15:14:16.229Z,100671.19
2023-05-06T15:16:44.858Z,100674.72
2023-05-06T15:19:16.937Z,100677.13
2023-05-06T15:21:47.396Z,100681.56
2023-05-06T15:24:15.733Z,100673.69
2023-05-06T15:26:48.000Z,100677.56
2023-05-06T15:29:18.662Z,100682.25
2023-05-06T15:31:47.617Z,100679.56
2023-05-06T15:34:15.953Z,100684.31
2023-05-06T15:36:52.512Z,100685.03
2023-05-06T15:39:21.284Z,100678.06
2023-05-06T15:41:49.553Z,100681.19
2023-05-06T15:44:20.662Z,100672.38
2023-05-06T15:46:49.651Z,100680.59
2023-05-06T15:49:48.939Z,100683.63
2023-05-06T15:52:07.599Z,100682.09
2023-05-06T15:54:37.602Z,100684.13
2023-05-06T15:57:07.020Z,100684.34
2023-05-06T15:59:35.693Z,100687.97
2023-05-06T16:04:35.595Z,100681.63
2023-05-06T16:07:03.912Z,100671.78
2023-05-06T16:09:33.541Z,100669.91
2023-05-06T16:12:01.879Z,100681.28
2023-05-06T16:14:30.190Z,100679.97
2023-05-06T16:16:58.869Z,100682.38
2023-05-06T16:19:27.734Z,100682.66
2023-05-06T16:21:56.815Z,100684.66
2023-05-06T16:24:25.337Z,100691.28
2023-05-06T16:26:55.770Z,100685.03
2023-05-06T16:29:26.720Z,100694.19
2023-05-06T16:31:55.331Z,100710.38
2023-05-06T16:34:23.616Z,100716.88
2023-05-06T16:36:52.396Z,100729.13
2023-05-06T16:39:20.744Z,100745.03
2023-05-06T16:41:49.111Z,100745.53
2023-05-06T16:44:18.878Z,100751.00
2023-05-06T16:46:47.101Z,100758.00
2023-05-06T16:49:15.572Z,100757.13
2023-05-06T16:51:43.949Z,100763.63
2023-05-06T16:54:12.381Z,100757.34
2023-05-06T16:56:51.520Z,100758.63
2023-05-06T16:59:22.749Z,100758.78
2023-05-06T17:01:51.545Z,100751.97
2023-05-06T17:04:21.782Z,100758.16
2023-05-06T17:06:50.305Z,100756.03
2023-05-06T17:09:18.649Z,100757.66
2023-05-06T17:11:47.091Z,100764.63
2023-05-06T17:14:15.379Z,100764.31
2023-05-06T17:16:45.252Z,100764.94
2023-05-06T17:19:13.694Z,100770.94
2023-05-06T17:21:43.501Z,100778.66
2023-05-06T17:24:11.924Z,100777.16
2023-05-06T17:26:40.382Z,100781.84
2023-05-06T17:29:08.829Z,100784.16
2023-05-06T17:31:37.165Z,100785.09
2023-05-06T17:34:07.487Z,100784.97
2023-05-06T17:36:35.855Z,100794.81
2023-05-06T17:39:05.052Z,100787.28
2023-05-06T17:41:33.574Z,100782.56
2023-05-06T17:44:02.154Z,100789.78
2023-05-06T17:46:31.166Z,100785.31
2023-05-06T17:48:59.478Z,100784.19
2023-05-06T17:51:29.403Z,100780.50
2023-05-06T17:53:58.484Z,100777.09
2023-05-06T17:56:27.212Z,100779.34
2023-05-06T17:58:56.459Z,100775.91
2023-05-06T18:01:24.877Z,100780.25
2023-05-06T18:03:53.191Z,100780.59
2023-05-06T18:06:21.677Z,100773.16
2023-05-06T18:08:51.359Z,100785.00
2023-05-06T18:11:19.922Z,100774.00
2023-05-06T18:13:48.428Z,100773.38
2023-05-06T18:16:16.931Z,100782.75
2023-05-06T18:18:45.201Z,100778.53
2023-05-06T18:21:14.842Z,100785.31
2023-05-06T18:23:43.298Z,100788.03
2023-05-06T18:26:12.858Z,100788.97
2023-05-06T18:28:41.471Z,100783.44
2023-05-06T18:31:09.860Z,100780.84
2023-05-06T18:33:38.574Z,100785.03
2023-05-06T18:36:07.512Z,100788.13
2023-05-06T18:38:35.918Z,100788.28
2023-05-06T18:41:04.533Z,100789.03
2023-05-06T18:43:34.325Z,100787.44
2023-05-06T18:46:05.435Z,100786.28
2023-05-06T18:48:33.972Z,100781.50
2023-05-06T18:51:12.373Z,100780.78
2023-05-06T18:53:40.926Z,100781.28
2023-05-06T18:56:09.461Z,100774.47
2023-05-06T18:58:40.008Z,100782.22
2023-05-06T19:01:09.208Z,100784.13
2023-05-06T19:03:37.959Z,100787.38
2023-05-06T19:06:08.113Z,100777.34
2023-05-06T19:08:36.713Z,100788.84
2023-05-06T19:11:05.286Z,100797.28
2023-05-06T19:13:33.642Z,100796.75
2023-05-06T19:16:03.256Z,100797.25
2023-05-06T19:18:31.571Z,100800.31
2023-05-06T19:20:59.783Z,100808.38
2023-05-06T19:23:28.277Z,100804.81
2023-05-06T19:25:56.686Z,100801.25
2023-05-06T19:28:25.110Z,100812.25
2023-05-06T19:30:57.374Z,100812.88
2023-05-06T19:33:27.447Z,100805.41
2023-05-06T19:35:55.697Z,100808.50
2023-05-06T19:38:23.938Z,100806.69
2023-05-06T19:40:52.135Z,100807.50
2023-05-06T19:43:20.597Z,100809.91
2023-05-06T19:45:48.831Z,100814.72
2023-05-06T19:48:17.877Z,100809.91
2023-05-06T19:50:47.549Z,100816.03
2023-05-06T19:53:15.978Z,100811.03
2023-05-06T19:55:44.830Z,100812.03
2023-05-06T19:58:14.142Z,100809.63
2023-05-06T20:00:42.467Z,100823.63
2023-05-06T20:03:10.821Z,100817.38
2023-05-06T20:05:39.989Z,100814.59
2023-05-06T20:08:11.440Z,100814.72
2023-05-06T20:10:39.931Z,100811.97
2023-05-06T20:13:08.267Z,100808.72
2023-05-06T20:15:36.970Z,100810.53
2023-05-06T20:18:05.713Z,100808.91
2023-05-06T20:20:35.990Z,100814.03
2023-05-06T20:23:04.473Z,100814.28
2023-05-06T20:25:36.818Z,100807.81
2023-05-06T20:28:06.495Z,100808.94
2023-05-06T20:30:35.043Z,100809.44
2023-05-06T20:33:03.454Z,100814.13
2023-05-06T20:35:31.841Z,100807.72
2023-05-06T20:38:01.916Z,100812.22
2023-05-06T20:40:30.389Z,100809.28
2023-05-06T20:43:00.284Z,100811.03
2023-05-06T20:45:30.517Z,100802.19
2023-05-06T20:47:59.060Z,100801.69
2023-05-06T20:50:29.582Z,100813.78
2023-05-06T20:52:57.982Z,100815.09
2023-05-06T20:55:26.369Z,100808.34
2023-05-06T20:57:54.870Z,100804.09
2023-05-06T21:00:24.663Z,100805.06
2023-05-06T21:02:53.423Z,100806.50
2023-05-06T21:05:21.825Z,100808.75
2023-05-06T21:07:50.103Z,100816.50
2023-05-06T21:10:18.454Z,100811.31
2023-05-06T21:12:50.196Z,100815.69
2023-05-06T21:15:18.847Z,100809.69
2023-05-06T21:17:48.622Z,100810.81
2023-05-06T21:20:17.252Z,100807.06
2023-05-06T21:22:45.596Z,100816.75
2023-05-06T21:25:14.208Z,100820.91
2023-05-06T21:27:42.600Z,100810.88
2023-05-06T21:30:11.176Z,100824.41
2023-05-06T21:32:39.499Z,100823.78
2023-05-06T21:35:09.779Z,100820.91
2023-05-06T21:37:38.277Z,100812.69
2023-05-06T21:40:07.126Z,100815.22
2023-05-06T21:42:35.419Z,100822.16
2023-05-06T21:45:03.741Z,100812.19
2023-05-06T21:47:32.221Z,100813.81
2023-05-06T21:50:00.630Z,100812.28
2023-05-06T21:52:30.741Z,100814.03
2023-05-06T21:54:59.008Z,100811.09
2023-05-06T21:57:27.542Z,100813.03
2023-05-06T21:59:55.828Z,100814.47
2023-05-06T22:02:24.437Z,100809.59
2023-05-06T22:04:53.002Z,100808.66
2023-05-06T22:07:21.684Z,100805.28
2023-05-06T22:09:51.470Z,100808.66
2023-05-06T22:12:19.803Z,100818.31
2023-05-06T22:14:48.284Z,100809.97
2023-05-06T22:17:16.704Z,100808.34
2023-05-06T22:19:45.089Z,100800.91
2023-05-06T22:22:13.822Z,100799.09
2023-05-06T22:24:42.186Z,100795.53
2023-05-06T22:27:11.905Z,100801.53
2023-05-06T22:29:40.338Z,100796.16
2023-05-06T22:32:08.774Z,100785.59
2023-05-06T22:34:37.302Z,100787.53
2023-05-06T22:37:09.598Z,100778.47
2023-05-06T22:39:39.049Z,100777.78
2023-05-06T22:42:08.895Z,100771.78
2023-05-06T22:44:38.590Z,100770.34
2023-05-06T22:47:07.131Z,100777.16
2023-05-06T22:49:36.368Z,100783.03
2023-05-06T22:52:04.954Z,100780.91
2023-05-06T22:54:33.810Z,100792.28
2023-05-06T22:57:02.267Z,100785.13
2023-05-06T22:59:30.683Z,100777.81
2023-05-06T23:02:00.489Z,100783.88
2023-05-06T23:04:29.106Z,100779.81
2023-05-06T23:06:59.612Z,100782.06
2023-05-06T23:09:27.897Z,100776.78
2023-05-06T23:11:56.365Z,100776.56
2023-05-06T23:14:24.761Z,100776.56
2023-05-06T23:16:53.333Z,100785.19
2023-05-06T23:19:23.188Z,100790.56
2023-05-06T23:21:52.050Z,100774.91
2023-05-06T23:24:20.843Z,100779.59
2023-05-06T23:26:49.178Z,100769.59
2023-05-06T23:29:17.974Z,100763.53
2023-05-06T23:31:46.223Z,100762.53
2023-05-06T23:34:14.820Z,100773.84
2023-05-06T23:36:44.461Z,100771.09
2023-05-06T23:39:13.138Z,100770.09
2023-05-06T23:41:41.507Z,100773.94
2023-05-06T23:44:09.892Z,100778.94
2023-05-06T23:46:38.220Z,100782.06
2023-05-06T23:49:07.236Z,100780.72
2023-05-06T23:51:35.652Z,100776.06
2023-05-06T23:54:05.554Z,100768.97
2023-05-06T23:56:33.859Z,100772.13
2023-05-06T23:59:02.400Z,100780.69
